CYUY

Rouyn-Noranda Airport

Rouyn-Noranda, , Canada
METAR CYUY 251434Z 17012G20KT 2 1/2SM -DZ BR FEW008 OVC011 13/12 A2993 RMK SF2SC6 SLP145 DENSITY ALT 1000FT
Observed Flight Rules
Sep-25 @ 14:34 UTC (31 minutes ago) Instrument Flight Rules
Wind Visibility Clouds Conditions
170° at 12 knots
 Gusting to 20 knots
2 1/2 miles
  • Few at 800' AGL
  • Overcast at 1,100' AGL
  • Light Drizzle
  • Mist
Temperatures Readings
Current 13°C / 55°F
Dewpoint 12°C / 54°F
Humidity 94%
Altimeter 29.93" Hg
Pressure 1014.5 hPa
Elevation 301
METAR CYUY 251434Z 17012G20KT 2 1/2SM -DZ BR FEW008 OVC011 13/12 A2993 RMK SF2SC6 SLP145 DENSITY ALT 1000FT
Observed Flight Rules
Sep-25 @ 14:34 UTC
(31 minutes ago)
IFR
Wind Visibility
170° at 12 knots
 Gusting to 20 knots
2 1/2 miles
Clouds
  • Few at 800' AGL
  • Overcast at 1,100' AGL
Conditions
  • Light Drizzle
  • Mist
Temperature Dewpoint
13°C / 55°F 12°C / 54°F
Humidity Altimeter Pressure
94% 29.93" Hg 1014.5 hPa